sensor_id;sensor_type;location;lat;lon;timestamp;P1;durP1;ratioP1;P2;durP2;ratioP2
12906;SDS011;6521;50.498;8.474;2022-10-01T00:02:17;6.60;;;1.67;;
12906;SDS011;6521;50.498;8.474;2022-10-01T00:04:48;2.63;;;2.10;;
12906;SDS011;6521;50.498;8.474;2022-10-01T00:07:20;2.43;;;1.97;;
12906;SDS011;6521;50.498;8.474;2022-10-01T00:09:51;6.53;;;2.00;;
12906;SDS011;6521;50.498;8.474;2022-10-01T00:12:21;3.40;;;1.80;;
12906;SDS011;6521;50.498;8.474;2022-10-01T00:14:52;6.20;;;2.07;;
12906;SDS011;6521;50.498;8.474;2022-10-01T00:17:23;4.53;;;1.80;;
12906;SDS011;6521;50.498;8.474;2022-10-01T00:19:53;2.50;;;1.70;;
12906;SDS011;6521;50.498;8.474;2022-10-01T00:22:24;1.83;;;1.50;;
12906;SDS011;6521;50.498;8.474;2022-10-01T00:24:55;3.30;;;1.90;;
12906;SDS011;6521;50.498;8.474;2022-10-01T00:27:25;4.47;;;2.00;;
12906;SDS011;6521;50.498;8.474;2022-10-01T00:29:56;3.27;;;1.50;;
12906;SDS011;6521;50.498;8.474;2022-10-01T00:32:27;2.97;;;1.67;;
12906;SDS011;6521;50.498;8.474;2022-10-01T00:35:01;3.10;;;1.80;;
12906;SDS011;6521;50.498;8.474;2022-10-01T00:37:32;2.10;;;1.90;;
12906;SDS011;6521;50.498;8.474;2022-10-01T00:40:05;3.07;;;1.97;;
12906;SDS011;6521;50.498;8.474;2022-10-01T00:42:36;5.80;;;2.07;;
12906;SDS011;6521;50.498;8.474;2022-10-01T00:45:08;2.60;;;1.77;;
12906;SDS011;6521;50.498;8.474;2022-10-01T00:47:46;2.00;;;1.80;;
12906;SDS011;6521;50.498;8.474;2022-10-01T00:50:32;3.50;;;1.93;;
12906;SDS011;6521;50.498;8.474;2022-10-01T00:53:05;6.20;;;2.60;;
12906;SDS011;6521;50.498;8.474;2022-10-01T00:55:47;5.87;;;1.87;;
12906;SDS011;6521;50.498;8.474;2022-10-01T00:58:23;2.13;;;1.93;;
12906;SDS011;6521;50.498;8.474;2022-10-01T01:00:54;6.20;;;2.10;;
12906;SDS011;6521;50.498;8.474;2022-10-01T01:03:26;2.20;;;1.73;;
12906;SDS011;6521;50.498;8.474;2022-10-01T01:05:57;3.63;;;1.90;;
12906;SDS011;6521;50.498;8.474;2022-10-01T01:08:28;3.63;;;2.13;;
12906;SDS011;6521;50.498;8.474;2022-10-01T01:17:07;2.17;;;1.63;;
12906;SDS011;6521;50.498;8.474;2022-10-01T01:19:43;3.17;;;1.93;;
12906;SDS011;6521;50.498;8.474;2022-10-01T01:22:30;5.33;;;2.27;;
12906;SDS011;6521;50.498;8.474;2022-10-01T01:25:09;2.33;;;2.13;;
12906;SDS011;6521;50.498;8.474;2022-10-01T01:27:58;2.50;;;1.83;;
12906;SDS011;6521;50.498;8.474;2022-10-01T01:30:35;3.50;;;2.10;;
12906;SDS011;6521;50.498;8.474;2022-10-01T01:33:13;5.00;;;1.87;;
12906;SDS011;6521;50.498;8.474;2022-10-01T01:35:52;4.37;;;2.27;;
12906;SDS011;6521;50.498;8.474;2022-10-01T01:38:27;3.00;;;2.00;;
12906;SDS011;6521;50.498;8.474;2022-10-01T01:41:01;2.40;;;1.97;;
12906;SDS011;6521;50.498;8.474;2022-10-01T01:43:35;3.70;;;2.27;;
12906;SDS011;6521;50.498;8.474;2022-10-01T01:46:08;3.40;;;1.90;;
12906;SDS011;6521;50.498;8.474;2022-10-01T01:48:42;5.80;;;2.10;;
12906;SDS011;6521;50.498;8.474;2022-10-01T01:51:18;3.97;;;2.23;;
12906;SDS011;6521;50.498;8.474;2022-10-01T01:53:54;3.00;;;2.00;;
12906;SDS011;6521;50.498;8.474;2022-10-01T01:56:24;4.47;;;2.40;;
12906;SDS011;6521;50.498;8.474;2022-10-01T01:58:56;5.33;;;2.27;;
12906;SDS011;6521;50.498;8.474;2022-10-01T02:01:35;3.60;;;1.80;;
12906;SDS011;6521;50.498;8.474;2022-10-01T02:04:21;3.20;;;2.00;;
12906;SDS011;6521;50.498;8.474;2022-10-01T02:07:01;3.90;;;2.00;;
12906;SDS011;6521;50.498;8.474;2022-10-01T02:15:07;4.00;;;2.33;;
12906;SDS011;6521;50.498;8.474;2022-10-01T02:17:46;3.27;;;2.30;;
12906;SDS011;6521;50.498;8.474;2022-10-01T02:20:23;4.87;;;2.57;;
12906;SDS011;6521;50.498;8.474;2022-10-01T02:23:16;2.83;;;2.30;;
12906;SDS011;6521;50.498;8.474;2022-10-01T02:25:53;2.90;;;2.03;;
12906;SDS011;6521;50.498;8.474;2022-10-01T02:28:27;2.40;;;1.90;;
12906;SDS011;6521;50.498;8.474;2022-10-01T02:31:02;3.50;;;2.30;;
12906;SDS011;6521;50.498;8.474;2022-10-01T02:33:33;3.13;;;2.10;;
12906;SDS011;6521;50.498;8.474;2022-10-01T02:36:05;5.50;;;2.47;;
12906;SDS011;6521;50.498;8.474;2022-10-01T02:38:39;2.83;;;2.50;;
12906;SDS011;6521;50.498;8.474;2022-10-01T02:41:14;3.70;;;2.70;;
12906;SDS011;6521;50.498;8.474;2022-10-01T02:43:50;3.03;;;2.00;;
12906;SDS011;6521;50.498;8.474;2022-10-01T02:46:26;6.23;;;2.90;;
12906;SDS011;6521;50.498;8.474;2022-10-01T02:49:05;2.87;;;2.23;;
12906;SDS011;6521;50.498;8.474;2022-10-01T02:51:40;3.30;;;2.60;;
12906;SDS011;6521;50.498;8.474;2022-10-01T02:57:15;3.03;;;2.47;;
12906;SDS011;6521;50.498;8.474;2022-10-01T03:02:27;3.90;;;2.50;;
12906;SDS011;6521;50.498;8.474;2022-10-01T03:05:00;3.20;;;2.57;;
12906;SDS011;6521;50.498;8.474;2022-10-01T03:07:32;4.87;;;2.60;;
12906;SDS011;6521;50.498;8.474;2022-10-01T03:10:05;3.73;;;2.87;;
12906;SDS011;6521;50.498;8.474;2022-10-01T03:12:37;3.90;;;2.83;;
12906;SDS011;6521;50.498;8.474;2022-10-01T03:15:12;4.60;;;3.10;;
12906;SDS011;6521;50.498;8.474;2022-10-01T03:17:45;6.50;;;3.60;;
12906;SDS011;6521;50.498;8.474;2022-10-01T03:20:20;5.63;;;3.23;;
12906;SDS011;6521;50.498;8.474;2022-10-01T03:22:51;4.90;;;3.43;;
12906;SDS011;6521;50.498;8.474;2022-10-01T03:25:22;6.13;;;3.40;;
12906;SDS011;6521;50.498;8.474;2022-10-01T03:27:55;3.53;;;3.20;;
12906;SDS011;6521;50.498;8.474;2022-10-01T03:30:25;4.07;;;3.40;;
12906;SDS011;6521;50.498;8.474;2022-10-01T03:32:56;6.40;;;3.63;;
12906;SDS011;6521;50.498;8.474;2022-10-01T03:35:26;7.30;;;3.90;;
12906;SDS011;6521;50.498;8.474;2022-10-01T03:37:57;5.77;;;3.60;;
12906;SDS011;6521;50.498;8.474;2022-10-01T03:40:28;6.97;;;4.30;;
12906;SDS011;6521;50.498;8.474;2022-10-01T03:42:59;6.10;;;3.87;;
12906;SDS011;6521;50.498;8.474;2022-10-01T03:45:29;5.13;;;4.00;;
12906;SDS011;6521;50.498;8.474;2022-10-01T03:48:00;8.10;;;4.07;;
12906;SDS011;6521;50.498;8.474;2022-10-01T03:50:30;4.13;;;3.60;;
12906;SDS011;6521;50.498;8.474;2022-10-01T03:53:01;7.67;;;3.60;;
12906;SDS011;6521;50.498;8.474;2022-10-01T03:55:32;4.73;;;3.50;;
12906;SDS011;6521;50.498;8.474;2022-10-01T03:58:02;9.57;;;4.43;;
12906;SDS011;6521;50.498;8.474;2022-10-01T04:00:33;4.90;;;3.87;;
12906;SDS011;6521;50.498;8.474;2022-10-01T04:03:04;7.47;;;4.20;;
12906;SDS011;6521;50.498;8.474;2022-10-01T04:05:35;7.47;;;4.53;;
12906;SDS011;6521;50.498;8.474;2022-10-01T04:08:06;12.90;;;4.00;;
12906;SDS011;6521;50.498;8.474;2022-10-01T04:10:37;9.33;;;3.93;;
12906;SDS011;6521;50.498;8.474;2022-10-01T04:13:08;6.00;;;4.87;;
12906;SDS011;6521;50.498;8.474;2022-10-01T04:15:39;5.87;;;4.20;;
12906;SDS011;6521;50.498;8.474;2022-10-01T04:18:09;7.30;;;3.90;;
12906;SDS011;6521;50.498;8.474;2022-10-01T04:20:40;4.30;;;3.90;;
12906;SDS011;6521;50.498;8.474;2022-10-01T04:23:10;6.00;;;4.10;;
12906;SDS011;6521;50.498;8.474;2022-10-01T04:25:41;4.57;;;3.70;;
12906;SDS011;6521;50.498;8.474;2022-10-01T04:28:12;3.97;;;3.67;;
12906;SDS011;6521;50.498;8.474;2022-10-01T04:30:44;4.93;;;3.93;;
12906;SDS011;6521;50.498;8.474;2022-10-01T04:33:15;7.87;;;4.60;;
12906;SDS011;6521;50.498;8.474;2022-10-01T04:35:46;4.70;;;4.20;;
12906;SDS011;6521;50.498;8.474;2022-10-01T04:38:16;5.33;;;3.97;;
12906;SDS011;6521;50.498;8.474;2022-10-01T04:40:47;5.33;;;3.90;;
12906;SDS011;6521;50.498;8.474;2022-10-01T04:43:18;4.27;;;3.87;;
12906;SDS011;6521;50.498;8.474;2022-10-01T04:45:48;5.17;;;3.67;;
12906;SDS011;6521;50.498;8.474;2022-10-01T04:48:19;4.97;;;4.00;;
12906;SDS011;6521;50.498;8.474;2022-10-01T04:50:50;5.80;;;4.10;;
12906;SDS011;6521;50.498;8.474;2022-10-01T04:53:22;5.47;;;4.00;;
12906;SDS011;6521;50.498;8.474;2022-10-01T04:55:53;5.10;;;3.70;;
12906;SDS011;6521;50.498;8.474;2022-10-01T04:58:24;6.20;;;4.17;;
12906;SDS011;6521;50.498;8.474;2022-10-01T05:00:56;4.27;;;3.60;;
12906;SDS011;6521;50.498;8.474;2022-10-01T05:03:26;5.07;;;3.90;;
12906;SDS011;6521;50.498;8.474;2022-10-01T05:05:57;4.40;;;3.87;;
12906;SDS011;6521;50.498;8.474;2022-10-01T05:08:28;4.30;;;3.90;;
12906;SDS011;6521;50.498;8.474;2022-10-01T05:10:58;3.80;;;3.40;;
12906;SDS011;6521;50.498;8.474;2022-10-01T05:13:29;9.30;;;3.97;;
12906;SDS011;6521;50.498;8.474;2022-10-01T05:16:01;8.23;;;4.00;;
12906;SDS011;6521;50.498;8.474;2022-10-01T05:18:32;4.30;;;3.60;;
12906;SDS011;6521;50.498;8.474;2022-10-01T05:21:04;6.13;;;4.30;;
12906;SDS011;6521;50.498;8.474;2022-10-01T05:23:36;5.47;;;3.60;;
12906;SDS011;6521;50.498;8.474;2022-10-01T05:26:07;3.80;;;3.50;;
12906;SDS011;6521;50.498;8.474;2022-10-01T05:28:38;3.83;;;3.40;;
12906;SDS011;6521;50.498;8.474;2022-10-01T05:31:13;4.13;;;3.00;;
12906;SDS011;6521;50.498;8.474;2022-10-01T05:33:45;3.80;;;3.23;;
12906;SDS011;6521;50.498;8.474;2022-10-01T05:36:15;4.37;;;3.33;;
12906;SDS011;6521;50.498;8.474;2022-10-01T05:38:47;4.50;;;3.17;;
12906;SDS011;6521;50.498;8.474;2022-10-01T05:41:18;5.83;;;3.30;;
12906;SDS011;6521;50.498;8.474;2022-10-01T05:43:48;3.87;;;3.10;;
12906;SDS011;6521;50.498;8.474;2022-10-01T05:46:20;4.80;;;3.20;;
12906;SDS011;6521;50.498;8.474;2022-10-01T05:48:51;4.43;;;3.50;;
12906;SDS011;6521;50.498;8.474;2022-10-01T05:51:21;6.33;;;3.27;;
12906;SDS011;6521;50.498;8.474;2022-10-01T05:53:53;6.67;;;2.93;;
12906;SDS011;6521;50.498;8.474;2022-10-01T05:56:24;6.47;;;3.43;;
12906;SDS011;6521;50.498;8.474;2022-10-01T05:58:55;5.80;;;3.00;;
12906;SDS011;6521;50.498;8.474;2022-10-01T06:01:26;11.60;;;3.30;;
12906;SDS011;6521;50.498;8.474;2022-10-01T06:03:58;4.73;;;2.97;;
12906;SDS011;6521;50.498;8.474;2022-10-01T06:06:28;3.83;;;3.43;;
12906;SDS011;6521;50.498;8.474;2022-10-01T06:08:59;3.40;;;3.10;;
12906;SDS011;6521;50.498;8.474;2022-10-01T06:11:30;3.10;;;2.80;;
12906;SDS011;6521;50.498;8.474;2022-10-01T06:14:00;10.27;;;3.23;;
12906;SDS011;6521;50.498;8.474;2022-10-01T06:16:31;3.20;;;2.90;;
12906;SDS011;6521;50.498;8.474;2022-10-01T06:19:02;4.20;;;3.20;;
12906;SDS011;6521;50.498;8.474;2022-10-01T06:21:33;3.20;;;2.80;;
12906;SDS011;6521;50.498;8.474;2022-10-01T06:24:04;5.37;;;4.43;;
12906;SDS011;6521;50.498;8.474;2022-10-01T06:26:35;8.90;;;3.30;;
12906;SDS011;6521;50.498;8.474;2022-10-01T06:29:05;3.43;;;3.13;;
12906;SDS011;6521;50.498;8.474;2022-10-01T06:31:36;3.10;;;2.80;;
12906;SDS011;6521;50.498;8.474;2022-10-01T06:34:07;5.87;;;3.13;;
12906;SDS011;6521;50.498;8.474;2022-10-01T06:36:38;3.43;;;2.80;;
12906;SDS011;6521;50.498;8.474;2022-10-01T06:39:09;3.00;;;2.50;;
12906;SDS011;6521;50.498;8.474;2022-10-01T06:41:39;2.93;;;2.63;;
12906;SDS011;6521;50.498;8.474;2022-10-01T06:44:18;2.77;;;2.40;;
12906;SDS011;6521;50.498;8.474;2022-10-01T06:46:49;5.07;;;2.63;;
12906;SDS011;6521;50.498;8.474;2022-10-01T06:49:20;2.90;;;2.20;;
12906;SDS011;6521;50.498;8.474;2022-10-01T06:51:51;2.40;;;2.20;;
12906;SDS011;6521;50.498;8.474;2022-10-01T06:54:40;9.03;;;2.63;;
12906;SDS011;6521;50.498;8.474;2022-10-01T06:57:11;2.10;;;1.90;;
12906;SDS011;6521;50.498;8.474;2022-10-01T06:59:41;4.77;;;2.37;;
12906;SDS011;6521;50.498;8.474;2022-10-01T07:02:20;3.13;;;2.07;;
12906;SDS011;6521;50.498;8.474;2022-10-01T07:04:58;2.43;;;2.00;;
12906;SDS011;6521;50.498;8.474;2022-10-01T07:07:33;3.17;;;2.30;;
12906;SDS011;6521;50.498;8.474;2022-10-01T07:10:07;2.10;;;2.00;;
12906;SDS011;6521;50.498;8.474;2022-10-01T07:12:39;2.47;;;2.27;;
12906;SDS011;6521;50.498;8.474;2022-10-01T07:15:09;2.83;;;2.20;;
12906;SDS011;6521;50.498;8.474;2022-10-01T07:17:44;2.60;;;2.40;;
12906;SDS011;6521;50.498;8.474;2022-10-01T07:20:19;5.03;;;2.13;;
12906;SDS011;6521;50.498;8.474;2022-10-01T07:22:55;2.60;;;1.70;;
12906;SDS011;6521;50.498;8.474;2022-10-01T07:25:27;2.47;;;1.97;;
12906;SDS011;6521;50.498;8.474;2022-10-01T07:28:00;2.70;;;2.50;;
12906;SDS011;6521;50.498;8.474;2022-10-01T07:30:33;2.87;;;2.30;;
12906;SDS011;6521;50.498;8.474;2022-10-01T07:33:04;2.13;;;2.00;;
12906;SDS011;6521;50.498;8.474;2022-10-01T07:35:35;2.57;;;2.37;;
12906;SDS011;6521;50.498;8.474;2022-10-01T07:38:07;2.57;;;2.30;;
12906;SDS011;6521;50.498;8.474;2022-10-01T07:40:38;2.40;;;2.10;;
12906;SDS011;6521;50.498;8.474;2022-10-01T07:43:08;2.20;;;2.00;;
12906;SDS011;6521;50.498;8.474;2022-10-01T07:45:39;2.03;;;1.93;;
12906;SDS011;6521;50.498;8.474;2022-10-01T07:48:10;2.30;;;2.10;;
12906;SDS011;6521;50.498;8.474;2022-10-01T07:50:41;4.20;;;3.27;;
12906;SDS011;6521;50.498;8.474;2022-10-01T07:53:14;6.00;;;2.43;;
12906;SDS011;6521;50.498;8.474;2022-10-01T07:55:46;2.87;;;1.83;;
12906;SDS011;6521;50.498;8.474;2022-10-01T07:58:16;3.03;;;1.70;;
12906;SDS011;6521;50.498;8.474;2022-10-01T08:00:48;3.93;;;2.00;;
12906;SDS011;6521;50.498;8.474;2022-10-01T08:03:18;2.30;;;1.77;;
12906;SDS011;6521;50.498;8.474;2022-10-01T08:05:49;1.60;;;1.50;;
12906;SDS011;6521;50.498;8.474;2022-10-01T08:08:20;1.80;;;1.60;;
12906;SDS011;6521;50.498;8.474;2022-10-01T08:10:51;1.40;;;1.20;;
12906;SDS011;6521;50.498;8.474;2022-10-01T08:13:22;1.50;;;1.40;;
12906;SDS011;6521;50.498;8.474;2022-10-01T08:15:55;1.43;;;1.33;;
12906;SDS011;6521;50.498;8.474;2022-10-01T08:18:26;1.60;;;1.50;;
12906;SDS011;6521;50.498;8.474;2022-10-01T08:21:00;1.87;;;1.50;;
12906;SDS011;6521;50.498;8.474;2022-10-01T08:23:31;1.57;;;1.47;;
12906;SDS011;6521;50.498;8.474;2022-10-01T08:26:04;2.87;;;1.87;;
12906;SDS011;6521;50.498;8.474;2022-10-01T08:28:36;1.93;;;1.83;;
12906;SDS011;6521;50.498;8.474;2022-10-01T08:31:07;1.63;;;1.47;;
12906;SDS011;6521;50.498;8.474;2022-10-01T08:33:39;2.23;;;1.50;;
12906;SDS011;6521;50.498;8.474;2022-10-01T08:36:09;1.87;;;1.77;;
12906;SDS011;6521;50.498;8.474;2022-10-01T08:38:43;1.13;;;1.13;;
12906;SDS011;6521;50.498;8.474;2022-10-01T08:43:45;1.30;;;1.20;;
12906;SDS011;6521;50.498;8.474;2022-10-01T08:46:17;1.80;;;1.40;;
12906;SDS011;6521;50.498;8.474;2022-10-01T08:52:05;1.67;;;1.57;;
12906;SDS011;6521;50.498;8.474;2022-10-01T08:57:22;1.00;;;1.00;;
12906;SDS011;6521;50.498;8.474;2022-10-01T08:59:57;3.97;;;1.70;;
12906;SDS011;6521;50.498;8.474;2022-10-01T09:02:31;1.50;;;1.30;;
12906;SDS011;6521;50.498;8.474;2022-10-01T09:05:24;3.57;;;1.37;;
12906;SDS011;6521;50.498;8.474;2022-10-01T09:10:59;1.57;;;1.17;;
12906;SDS011;6521;50.498;8.474;2022-10-01T09:22:36;1.30;;;1.20;;
12906;SDS011;6521;50.498;8.474;2022-10-01T09:27:38;4.43;;;1.77;;
12906;SDS011;6521;50.498;8.474;2022-10-01T09:30:20;1.37;;;0.93;;
12906;SDS011;6521;50.498;8.474;2022-10-01T09:32:54;1.30;;;1.07;;
12906;SDS011;6521;50.498;8.474;2022-10-01T09:35:43;2.53;;;1.20;;
12906;SDS011;6521;50.498;8.474;2022-10-01T09:38:22;4.13;;;1.13;;
12906;SDS011;6521;50.498;8.474;2022-10-01T09:40:58;1.47;;;1.20;;
12906;SDS011;6521;50.498;8.474;2022-10-01T09:43:30;6.00;;;1.07;;
12906;SDS011;6521;50.498;8.474;2022-10-01T09:46:03;1.10;;;1.00;;
12906;SDS011;6521;50.498;8.474;2022-10-01T09:51:41;1.40;;;1.13;;
12906;SDS011;6521;50.498;8.474;2022-10-01T09:54:26;0.90;;;0.90;;
12906;SDS011;6521;50.498;8.474;2022-10-01T09:57:06;1.10;;;1.00;;
12906;SDS011;6521;50.498;8.474;2022-10-01T09:59:44;0.90;;;0.90;;
12906;SDS011;6521;50.498;8.474;2022-10-01T10:05:05;0.97;;;0.90;;
12906;SDS011;6521;50.498;8.474;2022-10-01T10:07:38;1.00;;;0.90;;
12906;SDS011;6521;50.498;8.474;2022-10-01T10:10:18;1.07;;;1.07;;
12906;SDS011;6521;50.498;8.474;2022-10-01T10:12:56;1.33;;;1.23;;
12906;SDS011;6521;50.498;8.474;2022-10-01T10:15:30;1.30;;;1.20;;
12906;SDS011;6521;50.498;8.474;2022-10-01T10:18:05;1.67;;;1.40;;
12906;SDS011;6521;50.498;8.474;2022-10-01T10:20:39;1.20;;;1.10;;
12906;SDS011;6521;50.498;8.474;2022-10-01T10:23:16;1.40;;;1.30;;
12906;SDS011;6521;50.498;8.474;2022-10-01T10:25:59;1.57;;;1.47;;
12906;SDS011;6521;50.498;8.474;2022-10-01T10:28:41;4.43;;;2.97;;
12906;SDS011;6521;50.498;8.474;2022-10-01T10:31:15;6.40;;;1.97;;
12906;SDS011;6521;50.498;8.474;2022-10-01T10:34:33;3.00;;;2.07;;
12906;SDS011;6521;50.498;8.474;2022-10-01T10:36:45;2.23;;;1.50;;
12906;SDS011;6521;50.498;8.474;2022-10-01T10:39:21;1.20;;;1.10;;
12906;SDS011;6521;50.498;8.474;2022-10-01T10:41:54;1.63;;;1.20;;
12906;SDS011;6521;50.498;8.474;2022-10-01T10:44:27;1.50;;;1.30;;
12906;SDS011;6521;50.498;8.474;2022-10-01T10:47:02;2.60;;;1.97;;
12906;SDS011;6521;50.498;8.474;2022-10-01T10:49:42;1.97;;;1.40;;
12906;SDS011;6521;50.498;8.474;2022-10-01T10:52:36;1.40;;;1.30;;
12906;SDS011;6521;50.498;8.474;2022-10-01T10:55:20;1.70;;;1.50;;
12906;SDS011;6521;50.498;8.474;2022-10-01T10:57:51;1.93;;;1.70;;
12906;SDS011;6521;50.498;8.474;2022-10-01T11:00:23;1.40;;;1.30;;
12906;SDS011;6521;50.498;8.474;2022-10-01T11:02:56;1.87;;;1.47;;
12906;SDS011;6521;50.498;8.474;2022-10-01T11:05:30;1.70;;;1.60;;
12906;SDS011;6521;50.498;8.474;2022-10-01T11:08:03;3.07;;;1.67;;
12906;SDS011;6521;50.498;8.474;2022-10-01T11:27:51;2.07;;;1.53;;
12906;SDS011;6521;50.498;8.474;2022-10-01T11:33:17;1.80;;;1.43;;
12906;SDS011;6521;50.498;8.474;2022-10-01T11:39:14;1.48;;;1.38;;
12906;SDS011;6521;50.498;8.474;2022-10-01T11:41:35;2.33;;;1.50;;
12906;SDS011;6521;50.498;8.474;2022-10-01T11:44:17;1.80;;;1.30;;
12906;SDS011;6521;50.498;8.474;2022-10-01T11:46:59;1.20;;;1.00;;
12906;SDS011;6521;50.498;8.474;2022-10-01T11:49:44;1.63;;;1.20;;
12906;SDS011;6521;50.498;8.474;2022-10-01T11:55:05;1.38;;;1.27;;
12906;SDS011;6521;50.498;8.474;2022-10-01T11:58:14;7.22;;;1.30;;
12906;SDS011;6521;50.498;8.474;2022-10-01T12:04:02;3.33;;;1.55;;
12906;SDS011;6521;50.498;8.474;2022-10-01T12:06:54;3.22;;;2.13;;
12906;SDS011;6521;50.498;8.474;2022-10-01T12:12:56;4.00;;;2.70;;
12906;SDS011;6521;50.498;8.474;2022-10-01T12:15:35;1.60;;;1.17;;
12906;SDS011;6521;50.498;8.474;2022-10-01T12:21:23;1.98;;;1.25;;
12906;SDS011;6521;50.498;8.474;2022-10-01T12:24:01;4.63;;;1.70;;
12906;SDS011;6521;50.498;8.474;2022-10-01T12:26:44;4.93;;;1.77;;
12906;SDS011;6521;50.498;8.474;2022-10-01T12:38:21;6.65;;;1.48;;
12906;SDS011;6521;50.498;8.474;2022-10-01T12:41:13;1.80;;;1.13;;
12906;SDS011;6521;50.498;8.474;2022-10-01T12:43:52;3.92;;;1.20;;
12906;SDS011;6521;50.498;8.474;2022-10-01T12:46:39;5.97;;;1.60;;
12906;SDS011;6521;50.498;8.474;2022-10-01T12:49:22;2.42;;;1.52;;
12906;SDS011;6521;50.498;8.474;2022-10-01T12:57:54;2.83;;;1.33;;
12906;SDS011;6521;50.498;8.474;2022-10-01T13:00:40;4.03;;;1.63;;
12906;SDS011;6521;50.498;8.474;2022-10-01T13:08:59;5.43;;;1.90;;
12906;SDS011;6521;50.498;8.474;2022-10-01T13:14:16;5.78;;;1.92;;
12906;SDS011;6521;50.498;8.474;2022-10-01T13:16:55;3.95;;;1.73;;
12906;SDS011;6521;50.498;8.474;2022-10-01T13:23:18;2.92;;;1.45;;
12906;SDS011;6521;50.498;8.474;2022-10-01T13:25:20;6.85;;;2.10;;
12906;SDS011;6521;50.498;8.474;2022-10-01T13:27:58;5.18;;;2.08;;
12906;SDS011;6521;50.498;8.474;2022-10-01T13:30:58;4.15;;;1.98;;
12906;SDS011;6521;50.498;8.474;2022-10-01T13:33:31;5.65;;;1.65;;
12906;SDS011;6521;50.498;8.474;2022-10-01T13:36:06;2.08;;;1.20;;
12906;SDS011;6521;50.498;8.474;2022-10-01T13:38:39;3.75;;;1.65;;
12906;SDS011;6521;50.498;8.474;2022-10-01T13:41:18;5.90;;;1.58;;
12906;SDS011;6521;50.498;8.474;2022-10-01T13:47:04;4.85;;;1.90;;
12906;SDS011;6521;50.498;8.474;2022-10-01T13:49:36;4.97;;;1.75;;
12906;SDS011;6521;50.498;8.474;2022-10-01T13:52:17;7.30;;;2.30;;
12906;SDS011;6521;50.498;8.474;2022-10-01T13:54:50;6.65;;;2.45;;
12906;SDS011;6521;50.498;8.474;2022-10-01T13:57:31;8.00;;;2.42;;
12906;SDS011;6521;50.498;8.474;2022-10-01T14:02:42;3.88;;;1.48;;
12906;SDS011;6521;50.498;8.474;2022-10-01T14:11:00;6.38;;;1.73;;
12906;SDS011;6521;50.498;8.474;2022-10-01T14:13:53;4.32;;;1.98;;
12906;SDS011;6521;50.498;8.474;2022-10-01T14:16:44;5.82;;;2.53;;
12906;SDS011;6521;50.498;8.474;2022-10-01T14:19:20;9.60;;;1.85;;
12906;SDS011;6521;50.498;8.474;2022-10-01T14:27:38;7.18;;;1.30;;
12906;SDS011;6521;50.498;8.474;2022-10-01T14:36:31;5.70;;;2.25;;
12906;SDS011;6521;50.498;8.474;2022-10-01T14:41:43;8.18;;;1.88;;
12906;SDS011;6521;50.498;8.474;2022-10-01T14:47:17;7.15;;;2.10;;
12906;SDS011;6521;50.498;8.474;2022-10-01T14:49:53;5.70;;;2.35;;
12906;SDS011;6521;50.498;8.474;2022-10-01T14:52:28;8.50;;;2.50;;
12906;SDS011;6521;50.498;8.474;2022-10-01T14:55:10;4.82;;;3.45;;
12906;SDS011;6521;50.498;8.474;2022-10-01T14:57:44;7.32;;;2.60;;
12906;SDS011;6521;50.498;8.474;2022-10-01T15:00:20;8.43;;;2.50;;
12906;SDS011;6521;50.498;8.474;2022-10-01T15:03:09;3.60;;;2.28;;
12906;SDS011;6521;50.498;8.474;2022-10-01T15:05:43;7.93;;;2.95;;
12906;SDS011;6521;50.498;8.474;2022-10-01T15:08:21;6.00;;;3.33;;
12906;SDS011;6521;50.498;8.474;2022-10-01T15:11:07;4.82;;;2.60;;
12906;SDS011;6521;50.498;8.474;2022-10-01T15:13:43;7.03;;;2.95;;
12906;SDS011;6521;50.498;8.474;2022-10-01T15:16:22;6.70;;;3.08;;
12906;SDS011;6521;50.498;8.474;2022-10-01T15:18:54;6.00;;;3.03;;
12906;SDS011;6521;50.498;8.474;2022-10-01T15:21:34;4.68;;;2.80;;
12906;SDS011;6521;50.498;8.474;2022-10-01T15:24:18;8.25;;;2.97;;
12906;SDS011;6521;50.498;8.474;2022-10-01T15:26:52;3.85;;;2.28;;
12906;SDS011;6521;50.498;8.474;2022-10-01T15:29:26;7.00;;;2.78;;
12906;SDS011;6521;50.498;8.474;2022-10-01T15:31:57;8.32;;;2.10;;
12906;SDS011;6521;50.498;8.474;2022-10-01T15:34:28;6.88;;;2.72;;
12906;SDS011;6521;50.498;8.474;2022-10-01T15:36:59;10.52;;;2.70;;
12906;SDS011;6521;50.498;8.474;2022-10-01T15:39:39;6.57;;;2.50;;
12906;SDS011;6521;50.498;8.474;2022-10-01T15:42:28;7.38;;;3.00;;
12906;SDS011;6521;50.498;8.474;2022-10-01T15:47:59;8.90;;;2.58;;
12906;SDS011;6521;50.498;8.474;2022-10-01T15:50:34;5.90;;;3.08;;
12906;SDS011;6521;50.498;8.474;2022-10-01T15:53:15;10.20;;;3.38;;
12906;SDS011;6521;50.498;8.474;2022-10-01T15:55:50;8.13;;;3.25;;
12906;SDS011;6521;50.498;8.474;2022-10-01T15:58:29;9.63;;;3.70;;
12906;SDS011;6521;50.498;8.474;2022-10-01T16:01:04;7.70;;;3.13;;
12906;SDS011;6521;50.498;8.474;2022-10-01T16:03:40;6.72;;;3.33;;
12906;SDS011;6521;50.498;8.474;2022-10-01T16:06:47;8.05;;;3.65;;
12906;SDS011;6521;50.498;8.474;2022-10-01T16:09:21;7.25;;;3.30;;
12906;SDS011;6521;50.498;8.474;2022-10-01T16:14:59;8.27;;;3.53;;
12906;SDS011;6521;50.498;8.474;2022-10-01T16:17:36;6.35;;;3.15;;
12906;SDS011;6521;50.498;8.474;2022-10-01T16:22:44;7.45;;;3.85;;
12906;SDS011;6521;50.498;8.474;2022-10-01T16:27:49;7.25;;;4.00;;
12906;SDS011;6521;50.498;8.474;2022-10-01T16:30:25;6.38;;;4.10;;
12906;SDS011;6521;50.498;8.474;2022-10-01T16:33:00;9.13;;;4.10;;
12906;SDS011;6521;50.498;8.474;2022-10-01T16:35:33;8.73;;;5.15;;
12906;SDS011;6521;50.498;8.474;2022-10-01T16:38:09;8.43;;;5.13;;
12906;SDS011;6521;50.498;8.474;2022-10-01T16:40:43;8.70;;;4.70;;
12906;SDS011;6521;50.498;8.474;2022-10-01T16:43:19;10.85;;;4.60;;
12906;SDS011;6521;50.498;8.474;2022-10-01T16:45:53;9.50;;;4.47;;
12906;SDS011;6521;50.498;8.474;2022-10-01T16:48:24;9.07;;;5.28;;
12906;SDS011;6521;50.498;8.474;2022-10-01T16:50:56;9.98;;;4.60;;
12906;SDS011;6521;50.498;8.474;2022-10-01T16:53:28;10.63;;;6.20;;
12906;SDS011;6521;50.498;8.474;2022-10-01T16:55:59;12.30;;;5.65;;
12906;SDS011;6521;50.498;8.474;2022-10-01T16:58:30;7.43;;;5.15;;
12906;SDS011;6521;50.498;8.474;2022-10-01T17:01:03;11.10;;;5.70;;
12906;SDS011;6521;50.498;8.474;2022-10-01T17:03:36;13.68;;;7.43;;
12906;SDS011;6521;50.498;8.474;2022-10-01T17:06:07;9.68;;;6.30;;
12906;SDS011;6521;50.498;8.474;2022-10-01T17:08:38;23.95;;;7.30;;
12906;SDS011;6521;50.498;8.474;2022-10-01T17:11:09;8.75;;;6.03;;
12906;SDS011;6521;50.498;8.474;2022-10-01T17:13:41;13.20;;;6.57;;
12906;SDS011;6521;50.498;8.474;2022-10-01T17:16:11;10.32;;;6.10;;
12906;SDS011;6521;50.498;8.474;2022-10-01T17:18:42;14.73;;;7.78;;
12906;SDS011;6521;50.498;8.474;2022-10-01T17:21:13;14.50;;;8.73;;
12906;SDS011;6521;50.498;8.474;2022-10-01T17:23:43;15.10;;;6.78;;
12906;SDS011;6521;50.498;8.474;2022-10-01T17:26:14;12.18;;;6.00;;
12906;SDS011;6521;50.498;8.474;2022-10-01T17:28:44;9.37;;;5.47;;
12906;SDS011;6521;50.498;8.474;2022-10-01T17:31:15;9.60;;;5.07;;
12906;SDS011;6521;50.498;8.474;2022-10-01T17:33:46;10.40;;;4.55;;
12906;SDS011;6521;50.498;8.474;2022-10-01T17:36:17;9.10;;;4.93;;
12906;SDS011;6521;50.498;8.474;2022-10-01T17:38:48;8.87;;;5.23;;
12906;SDS011;6521;50.498;8.474;2022-10-01T17:41:19;16.43;;;8.43;;
12906;SDS011;6521;50.498;8.474;2022-10-01T17:43:49;34.00;;;23.13;;
12906;SDS011;6521;50.498;8.474;2022-10-01T17:46:20;16.40;;;7.63;;
12906;SDS011;6521;50.498;8.474;2022-10-01T17:48:51;14.48;;;6.53;;
12906;SDS011;6521;50.498;8.474;2022-10-01T17:51:22;9.50;;;5.70;;
12906;SDS011;6521;50.498;8.474;2022-10-01T17:53:53;15.40;;;6.50;;
12906;SDS011;6521;50.498;8.474;2022-10-01T17:56:24;10.50;;;6.00;;
12906;SDS011;6521;50.498;8.474;2022-10-01T17:58:55;9.98;;;5.90;;
12906;SDS011;6521;50.498;8.474;2022-10-01T18:01:26;10.67;;;4.53;;
12906;SDS011;6521;50.498;8.474;2022-10-01T18:03:57;9.75;;;5.60;;
12906;SDS011;6521;50.498;8.474;2022-10-01T18:06:29;11.73;;;7.20;;
12906;SDS011;6521;50.498;8.474;2022-10-01T18:09:00;11.10;;;4.70;;
12906;SDS011;6521;50.498;8.474;2022-10-01T18:11:30;10.23;;;5.23;;
12906;SDS011;6521;50.498;8.474;2022-10-01T18:14:02;12.23;;;5.70;;